Time;durP1;ratioP1;P1;durP2;ratioP2;P2;SDS_P1;SDS_P2;PMS_P1;PMS_P2;Temp;Humidity;BMP_temperature;BMP_pressure;BME280_temperature;BME280_humidity;BME280_pressure;Samples;Min_cycle;Max_cycle;Signal;HPM_P1;HPM_P2
2021/06/29 00:00:39;;;;;;;11.37;10.67;;;23.50;99.90;;;;;;5051589;28;20212;-85
2021/06/29 00:03:07;;;;;;;11.20;10.50;;;23.40;99.90;;;;;;5050863;28;20519;-84
2021/06/29 00:05:35;;;;;;;11.50;10.80;;;23.30;99.90;;;;;;5034008;28;20416;-84
2021/06/29 00:08:06;;;;;;;11.60;10.90;;;23.30;99.90;;;;;;5050871;28;20814;-83
2021/06/29 00:10:33;;;;;;;10.97;10.23;;;23.30;99.90;;;;;;5051890;28;20396;-85
2021/06/29 00:12:59;;;;;;;10.73;10.13;;;23.30;99.90;;;;;;5032901;28;20404;-83
2021/06/29 00:15:27;;;;;;;10.77;10.07;;;23.30;99.90;;;;;;5055176;28;20926;-84
2021/06/29 00:17:53;;;;;;;10.80;9.90;;;23.20;99.90;;;;;;5055070;28;20178;-84
2021/06/29 00:20:19;;;;;;;9.20;8.60;;;23.10;99.90;;;;;;5037087;28;20411;-84
2021/06/29 00:22:45;;;;;;;9.80;9.10;;;23.10;99.90;;;;;;5055312;28;20404;-84
2021/06/29 00:25:13;;;;;;;8.87;8.37;;;23.10;99.90;;;;;;5054777;28;20216;-84
2021/06/29 00:27:40;;;;;;;9.60;9.00;;;23.00;99.90;;;;;;5037365;28;20412;-84
2021/06/29 00:30:07;;;;;;;9.17;8.53;;;23.00;99.90;;;;;;5054321;28;20453;-84
2021/06/29 00:32:33;;;;;;;9.90;9.20;;;23.00;99.90;;;;;;5055154;28;20409;-84
2021/06/29 00:34:59;;;;;;;9.20;8.63;;;23.00;99.90;;;;;;5054329;28;20491;-84
2021/06/29 00:37:25;;;;;;;9.13;8.63;;;22.90;99.90;;;;;;5055057;28;20511;-83
2021/06/29 00:39:51;;;;;;;9.60;9.03;;;22.90;99.90;;;;;;5053762;28;20192;-84
2021/06/29 00:42:16;;;;;;;10.37;9.73;;;22.90;99.90;;;;;;5054048;28;20197;-83
2021/06/29 00:44:46;;;;;;;10.07;9.37;;;22.90;99.90;;;;;;5054571;28;20798;-84
2021/06/29 00:47:12;;;;;;;10.80;10.10;;;22.90;99.90;;;;;;5054123;28;20249;-84
2021/06/29 00:49:39;;;;;;;9.87;9.27;;;22.90;99.90;;;;;;5054753;28;20452;-84
2021/06/29 00:52:06;;;;;;;9.13;8.63;;;22.80;99.90;;;;;;5053940;28;20462;-83
2021/06/29 00:54:34;;;;;;;9.73;9.13;;;22.80;99.90;;;;;;5054430;28;20424;-84
2021/06/29 00:57:00;;;;;;;9.90;9.20;;;22.70;99.90;;;;;;5053908;28;20438;-83
2021/06/29 00:59:26;;;;;;;9.70;9.10;;;22.70;99.90;;;;;;5054530;28;20760;-83
2021/06/29 01:01:52;;;;;;;9.53;9.00;;;22.70;99.90;;;;;;5054256;28;20605;-84
2021/06/29 01:04:18;;;;;;;9.53;8.90;;;22.70;99.90;;;;;;5053696;28;20900;-84
2021/06/29 01:06:47;;;;;;;9.53;8.93;;;22.70;99.90;;;;;;5054410;28;20213;-84
2021/06/29 01:09:13;;;;;;;9.90;9.20;;;22.70;99.90;;;;;;5053552;28;20271;-84
2021/06/29 01:11:39;;;;;;;10.23;9.63;;;22.80;99.90;;;;;;5054092;28;20915;-84
2021/06/29 01:14:15;;;;;;;9.50;8.90;;;22.80;99.90;;;;;;5053479;28;20178;-83
2021/06/29 01:16:42;;;;;;;9.13;8.53;;;22.80;99.90;;;;;;5036576;28;20180;-84
2021/06/29 01:19:10;;;;;;;11.07;10.20;;;22.80;99.90;;;;;;5053286;28;20428;-84
2021/06/29 01:21:40;;;;;;;10.40;9.73;;;22.80;99.90;;;;;;5054173;28;20408;-84
2021/06/29 01:24:33;;;;;;;10.93;10.13;;;22.80;99.90;;;;;;5053345;28;20408;-84
2021/06/29 01:29:39;;;;;;;11.53;10.70;;;22.70;99.90;;;;;;5053735;28;20463;-84
2021/06/29 01:32:11;;;;;;;10.80;10.00;;;22.60;99.90;;;;;;5053559;28;20407;-84
2021/06/29 01:34:36;;;;;;;11.80;10.90;;;22.60;99.90;;;;;;5053654;28;20895;-83
2021/06/29 01:37:02;;;;;;;11.60;10.80;;;22.60;99.90;;;;;;5035349;28;20415;-83
2021/06/29 01:39:28;;;;;;;11.40;10.70;;;22.60;99.90;;;;;;5054162;28;20186;-84
2021/06/29 01:41:54;;;;;;;11.20;10.43;;;22.60;99.90;;;;;;5053810;28;20170;-83
2021/06/29 01:44:26;;;;;;;12.07;11.27;;;22.60;99.90;;;;;;5052825;28;20205;-84
2021/06/29 01:46:54;;;;;;;11.63;10.83;;;22.60;99.90;;;;;;5053777;28;20180;-84
2021/06/29 01:49:27;;;;;;;10.83;10.13;;;22.60;99.90;;;;;;5052813;28;20456;-83
2021/06/29 01:51:54;;;;;;;12.10;11.00;;;22.60;99.90;;;;;;5052501;28;20435;-84
2021/06/29 01:54:21;;;;;;;11.30;10.40;;;22.60;99.90;;;;;;5052699;28;20442;-84
2021/06/29 01:56:47;;;;;;;11.13;10.43;;;22.50;99.90;;;;;;5035744;28;20412;-84
2021/06/29 01:59:16;;;;;;;11.60;10.80;;;22.60;99.90;;;;;;5052669;28;20796;-84
2021/06/29 02:01:43;;;;;;;12.33;11.53;;;22.60;99.90;;;;;;5053423;28;20405;-84
2021/06/29 02:04:10;;;;;;;11.90;11.20;;;22.50;99.90;;;;;;5052554;28;20392;-84
2021/06/29 02:06:37;;;;;;;13.30;12.30;;;22.50;99.90;;;;;;5053435;28;20451;-85
2021/06/29 02:09:07;;;;;;;11.70;10.80;;;22.40;99.90;;;;;;5034617;28;20456;-84
2021/06/29 02:11:32;;;;;;;11.90;11.10;;;22.40;99.90;;;;;;5052991;28;20400;-85
2021/06/29 02:13:58;;;;;;;11.33;10.57;;;22.40;99.90;;;;;;5052870;28;20747;-85
2021/06/29 02:16:24;;;;;;;12.30;11.23;;;22.40;99.90;;;;;;5052460;28;20174;-84
2021/06/29 02:18:49;;;;;;;10.63;9.93;;;22.50;99.90;;;;;;5035335;28;20173;-84
2021/06/29 02:21:15;;;;;;;11.10;10.40;;;22.50;99.90;;;;;;5052188;28;20228;-84
2021/06/29 02:23:41;;;;;;;11.50;10.70;;;22.50;99.90;;;;;;5052983;28;20231;-84
2021/06/29 02:26:06;;;;;;;10.90;10.10;;;22.50;99.90;;;;;;5050759;28;20185;-84
2021/06/29 02:28:32;;;;;;;11.67;10.97;;;22.50;99.90;;;;;;5052837;28;20347;-84
2021/06/29 02:30:58;;;;;;;11.80;11.03;;;22.50;99.90;;;;;;5053075;28;20184;-84
2021/06/29 02:33:24;;;;;;;11.97;11.17;;;22.50;99.90;;;;;;5033990;28;20170;-84
2021/06/29 02:35:49;;;;;;;12.30;11.50;;;22.60;99.90;;;;;;5052831;28;20174;-84
2021/06/29 02:38:15;;;;;;;12.30;11.60;;;22.60;99.90;;;;;;5051801;28;20184;-84
2021/06/29 02:40:41;;;;;;;10.90;10.20;;;22.60;99.90;;;;;;5052809;28;20186;-84
2021/06/29 02:43:06;;;;;;;11.80;11.10;;;22.60;99.90;;;;;;5051927;28;20170;-83
2021/06/29 02:45:32;;;;;;;12.13;11.43;;;22.60;99.90;;;;;;5052000;28;20746;-84
2021/06/29 02:47:58;;;;;;;11.73;11.03;;;22.60;99.90;;;;;;5034697;28;20224;-84
2021/06/29 02:50:25;;;;;;;12.10;11.40;;;22.60;99.90;;;;;;5051793;28;20185;-84
2021/06/29 02:52:51;;;;;;;12.53;11.73;;;22.60;99.90;;;;;;5052416;28;20440;-84
2021/06/29 02:55:17;;;;;;;11.67;10.97;;;22.50;99.90;;;;;;5051653;28;21049;-84
2021/06/29 02:57:44;;;;;;;11.03;10.33;;;22.50;99.90;;;;;;5052476;28;20618;-84
2021/06/29 03:00:13;;;;;;;10.43;9.73;;;22.50;99.90;;;;;;5051611;28;20412;-83
2021/06/29 03:02:39;;;;;;;10.40;9.70;;;22.50;99.90;;;;;;5052432;28;20408;-85
2021/06/29 03:05:05;;;;;;;9.00;8.50;;;22.40;99.90;;;;;;5051861;28;20418;-84
2021/06/29 03:07:31;;;;;;;9.50;8.90;;;22.30;99.90;;;;;;5052357;28;20174;-78
2021/06/29 03:09:57;;;;;;;8.80;8.30;;;22.20;99.90;;;;;;5052181;28;20513;-82
2021/06/29 03:12:23;;;;;;;10.80;10.00;;;22.20;99.90;;;;;;5051259;28;20415;-80
2021/06/29 03:14:59;;;;;;;9.70;8.93;;;22.20;99.90;;;;;;5034580;28;20174;-80
2021/06/29 03:17:25;;;;;;;10.10;9.30;;;22.10;99.90;;;;;;5051580;28;20223;-80
2021/06/29 03:19:51;;;;;;;9.33;8.73;;;22.00;99.90;;;;;;5052513;28;20412;-81
2021/06/29 03:22:17;;;;;;;8.93;8.33;;;22.00;99.90;;;;;;5051326;28;20968;-81
2021/06/29 03:24:43;;;;;;;9.20;8.60;;;21.80;99.90;;;;;;5052043;28;20530;-81
2021/06/29 03:27:09;;;;;;;9.13;8.63;;;21.60;99.90;;;;;;5033518;28;20441;-82
2021/06/29 03:29:36;;;;;;;10.47;9.77;;;21.50;99.90;;;;;;5052098;28;20443;-82
2021/06/29 03:32:02;;;;;;;9.67;9.07;;;21.50;99.90;;;;;;5034283;28;20311;-81
2021/06/29 03:34:28;;;;;;;9.47;8.83;;;21.50;99.90;;;;;;5051252;28;20883;-82
2021/06/29 03:36:54;;;;;;;11.67;10.77;;;21.60;99.90;;;;;;5051068;28;20408;-80
2021/06/29 03:39:20;;;;;;;10.70;9.90;;;21.60;99.90;;;;;;5033149;28;20185;-80
2021/06/29 03:41:46;;;;;;;9.93;9.23;;;21.60;99.90;;;;;;5034264;28;20269;-81
2021/06/29 03:44:11;;;;;;;10.40;9.80;;;21.60;99.90;;;;;;5033897;28;20416;-80
2021/06/29 03:46:37;;;;;;;9.30;8.80;;;21.50;99.90;;;;;;5051926;28;20245;-80
2021/06/29 03:49:03;;;;;;;9.90;9.30;;;21.50;99.90;;;;;;5054106;28;20244;-80
2021/06/29 03:51:29;;;;;;;9.10;8.43;;;21.60;99.90;;;;;;5056332;28;20253;-86
2021/06/29 03:53:55;;;;;;;9.13;8.60;;;21.70;99.90;;;;;;5038543;28;20458;-87
2021/06/29 03:56:27;;;;;;;9.83;9.23;;;21.80;99.90;;;;;;5055975;28;20197;-89
2021/06/29 03:59:00;;;;;;;10.70;10.00;;;21.80;99.90;;;;;;5056295;28;20392;-88
2021/06/29 04:01:27;;;;;;;9.10;8.30;;;21.90;99.90;;;;;;5055260;28;20830;-87
2021/06/29 04:03:55;;;;;;;9.20;8.60;;;21.90;99.90;;;;;;5056215;28;20404;-86
2021/06/29 04:06:29;;;;;;;9.43;8.53;;;21.80;99.90;;;;;;5055733;28;20447;-88
2021/06/29 04:08:57;;;;;;;10.30;9.60;;;21.60;99.90;;;;;;5056004;28;20981;-87
2021/06/29 04:11:23;;;;;;;10.30;9.50;;;21.50;99.90;;;;;;5055464;28;20797;-86
2021/06/29 04:13:50;;;;;;;9.90;9.30;;;21.50;99.90;;;;;;5055874;28;20404;-86
2021/06/29 04:16:16;;;;;;;10.60;9.87;;;21.50;99.90;;;;;;5036998;28;20972;-86
2021/06/29 04:18:43;;;;;;;9.70;9.13;;;21.40;99.90;;;;;;5055925;28;20499;-86
2021/06/29 04:21:09;;;;;;;9.87;9.27;;;21.40;99.90;;;;;;5055145;28;20421;-86
2021/06/29 04:23:35;;;;;;;9.90;9.30;;;21.30;99.90;;;;;;5037977;28;20470;-87
2021/06/29 04:26:01;;;;;;;9.73;9.13;;;21.30;99.90;;;;;;5055667;28;20895;-86
2021/06/29 04:28:27;;;;;;;13.93;12.90;;;21.30;99.90;;;;;;5036872;28;20592;-86
2021/06/29 04:30:53;;;;;;;10.60;9.90;;;21.30;99.90;;;;;;5054394;28;20408;-86
2021/06/29 04:33:19;;;;;;;10.80;10.00;;;21.40;99.90;;;;;;5054953;28;20284;-86
2021/06/29 04:35:45;;;;;;;9.83;9.10;;;21.30;99.90;;;;;;5037823;28;20562;-86
2021/06/29 04:38:10;;;;;;;10.20;9.50;;;21.30;99.90;;;;;;5054537;28;20495;-86
2021/06/29 04:40:36;;;;;;;11.07;10.27;;;21.40;99.90;;;;;;5055043;28;20535;-86
2021/06/29 04:43:02;;;;;;;10.97;10.17;;;21.50;99.90;;;;;;5055492;28;20739;-87
2021/06/29 04:45:28;;;;;;;9.70;9.10;;;21.60;99.90;;;;;;5054366;28;20240;-87
2021/06/29 04:47:55;;;;;;;9.70;9.10;;;21.80;99.90;;;;;;5055308;28;20170;-87
2021/06/29 04:50:22;;;;;;;9.10;8.60;;;21.80;99.90;;;;;;5054699;28;20523;-87
2021/06/29 04:52:49;;;;;;;10.00;9.30;;;21.90;99.90;;;;;;5055296;28;20397;-87
2021/06/29 04:55:15;;;;;;;11.07;10.27;;;22.00;99.90;;;;;;5054602;28;20770;-86
2021/06/29 04:57:42;;;;;;;9.80;9.17;;;22.10;99.90;;;;;;5036943;28;20499;-87
2021/06/29 05:00:10;;;;;;;8.87;8.10;;;22.10;99.90;;;;;;5053727;28;20400;-86
2021/06/29 05:02:37;;;;;;;11.10;10.30;;;22.20;99.90;;;;;;5054987;28;20466;-87
2021/06/29 05:05:07;;;;;;;9.30;8.70;;;22.30;99.90;;;;;;5055008;28;20454;-87
2021/06/29 05:07:35;;;;;;;9.33;8.73;;;22.30;99.90;;;;;;5054497;28;20401;-86
2021/06/29 05:10:01;;;;;;;10.03;9.33;;;22.40;99.90;;;;;;5055652;28;20505;-86
2021/06/29 05:12:26;;;;;;;8.37;7.80;;;22.40;99.90;;;;;;5054452;28;20895;-86
2021/06/29 05:14:52;;;;;;;7.73;7.33;;;22.50;99.90;;;;;;5036935;28;20209;-87
2021/06/29 05:17:18;;;;;;;9.80;9.20;;;22.60;99.90;;;;;;5054601;28;20177;-86
2021/06/29 05:19:43;;;;;;;11.43;10.70;;;22.60;99.90;;;;;;5054913;28;20178;-87
2021/06/29 05:22:09;;;;;;;9.40;8.80;;;22.60;99.90;;;;;;5054955;28;20200;-87
2021/06/29 05:24:35;;;;;;;10.03;9.43;;;22.70;99.90;;;;;;5055122;28;20178;-86
2021/06/29 05:27:01;;;;;;;10.10;9.30;;;22.60;99.90;;;;;;5054708;28;20531;-86
2021/06/29 05:29:26;;;;;;;9.00;8.40;;;22.70;99.90;;;;;;5054004;28;20209;-86
2021/06/29 05:31:52;;;;;;;10.03;9.27;;;22.70;99.90;;;;;;5054450;28;20184;-87
2021/06/29 05:34:18;;;;;;;9.03;8.53;;;22.70;99.90;;;;;;5053780;28;20169;-87
2021/06/29 05:36:44;;;;;;;9.00;8.40;;;22.70;99.90;;;;;;5054755;28;20235;-86
2021/06/29 05:39:10;;;;;;;8.50;8.00;;;22.80;99.90;;;;;;5054395;28;20188;-81
2021/06/29 05:41:36;;;;;;;9.00;8.40;;;22.70;99.90;;;;;;5053723;28;20177;-80
2021/06/29 05:44:02;;;;;;;10.00;9.30;;;22.80;99.90;;;;;;5054056;28;20408;-81
2021/06/29 05:46:28;;;;;;;9.10;8.40;;;22.80;99.90;;;;;;5053621;28;20535;-81
2021/06/29 05:48:54;;;;;;;9.23;8.73;;;22.80;99.90;;;;;;5054013;28;20304;-86
2021/06/29 05:51:21;;;;;;;10.57;9.87;;;22.80;99.90;;;;;;5053244;28;20416;-87
2021/06/29 05:53:47;;;;;;;9.37;8.80;;;22.80;99.90;;;;;;5053805;28;20828;-87
2021/06/29 05:56:13;;;;;;;9.80;9.00;;;22.90;99.90;;;;;;5053292;28;20434;-87
2021/06/29 05:58:39;;;;;;;10.27;9.67;;;23.00;99.90;;;;;;5053766;28;20899;-82
2021/06/29 06:01:06;;;;;;;9.80;9.10;;;23.10;99.90;;;;;;5053820;28;20401;-82
2021/06/29 06:03:32;;;;;;;11.40;10.40;;;23.20;99.90;;;;;;5053118;28;20694;-89
2021/06/29 06:05:58;;;;;;;11.83;11.03;;;23.30;99.90;;;;;;5053505;28;20451;-81
2021/06/29 06:08:25;;;;;;;10.90;10.20;;;23.50;99.90;;;;;;5052533;28;20484;-88
2021/06/29 06:10:51;;;;;;;11.40;10.60;;;23.50;99.90;;;;;;5053091;28;20431;-87
2021/06/29 06:13:17;;;;;;;49.93;33.80;;;23.60;99.90;;;;;;5052701;28;20427;-84
2021/06/29 06:15:43;;;;;;;23.53;17.53;;;23.70;99.90;;;;;;5053268;28;20511;-84
2021/06/29 06:18:08;;;;;;;15.40;13.90;;;23.70;99.90;;;;;;5053584;28;20264;-84
2021/06/29 06:20:35;;;;;;;22.27;18.40;;;23.70;99.90;;;;;;5052577;28;20256;-84
2021/06/29 06:23:02;;;;;;;14.20;12.80;;;23.70;99.90;;;;;;5053520;28;20580;-82
2021/06/29 06:25:29;;;;;;;15.00;13.43;;;23.70;99.90;;;;;;5052744;28;20530;-84
2021/06/29 06:27:54;;;;;;;11.33;10.23;;;23.70;99.90;;;;;;5053227;28;20511;-82
2021/06/29 06:30:20;;;;;;;14.27;12.87;;;23.60;99.90;;;;;;5052853;28;21014;-80
2021/06/29 06:32:47;;;;;;;28.53;21.73;;;23.60;99.90;;;;;;5053340;28;20506;-78
2021/06/29 06:35:13;;;;;;;14.53;12.80;;;23.60;99.90;;;;;;5052866;28;20790;-78
2021/06/29 06:37:38;;;;;;;9.97;9.17;;;23.60;99.90;;;;;;5052491;28;20435;-78
2021/06/29 06:40:05;;;;;;;9.87;8.50;;;23.60;99.90;;;;;;5053095;28;20416;-78
2021/06/29 06:42:31;;;;;;;8.30;7.80;;;23.60;99.90;;;;;;5052427;28;20173;-78
2021/06/29 06:44:57;;;;;;;8.40;7.80;;;23.50;99.90;;;;;;5052730;28;20463;-79
2021/06/29 06:47:23;;;;;;;10.40;9.50;;;23.50;99.90;;;;;;5034472;28;20416;-79
2021/06/29 06:50:06;;;;;;;10.53;8.87;;;23.40;99.90;;;;;;5030006;28;20479;-77
2021/06/29 06:52:35;;;;;;;10.80;9.93;;;23.30;99.90;;;;;;5052365;28;20908;-78
2021/06/29 06:55:03;;;;;;;9.67;8.90;;;23.30;99.90;;;;;;5052576;28;20415;-78
2021/06/29 06:57:28;;;;;;;9.20;8.53;;;23.20;99.90;;;;;;5052318;28;20455;-76
2021/06/29 06:59:54;;;;;;;9.57;8.93;;;23.20;99.90;;;;;;5052751;28;20458;-77
2021/06/29 07:02:20;;;;;;;10.03;9.40;;;23.20;99.90;;;;;;5052210;28;20173;-78
2021/06/29 07:04:46;;;;;;;10.20;9.40;;;23.20;99.90;;;;;;5052809;28;20566;-77
2021/06/29 07:07:11;;;;;;;12.63;11.63;;;23.20;99.90;;;;;;5052617;28;20180;-77
2021/06/29 07:09:37;;;;;;;11.00;10.17;;;23.20;99.90;;;;;;5052018;28;20565;-77
2021/06/29 07:12:03;;;;;;;9.37;8.70;;;23.20;99.90;;;;;;5052628;28;20174;-77
2021/06/29 07:14:29;;;;;;;16.17;14.60;;;23.30;99.90;;;;;;5051801;28;20695;-77
2021/06/29 07:16:55;;;;;;;11.00;10.30;;;23.30;99.90;;;;;;5034873;28;20404;-77
2021/06/29 07:19:20;;;;;;;11.50;10.60;;;23.30;99.90;;;;;;5051880;28;20184;-77
2021/06/29 07:21:46;;;;;;;11.40;10.60;;;23.30;99.90;;;;;;5052343;28;20185;-77
2021/06/29 07:24:12;;;;;;;11.37;10.70;;;23.30;99.90;;;;;;5051786;28;20181;-77
2021/06/29 07:26:37;;;;;;;11.73;10.90;;;23.30;99.90;;;;;;5051889;28;20181;-77
2021/06/29 07:29:04;;;;;;;11.87;10.90;;;23.30;99.90;;;;;;5052301;28;20201;-77
2021/06/29 07:31:30;;;;;;;11.07;10.27;;;23.30;99.90;;;;;;5051837;28;20173;-78
2021/06/29 07:33:56;;;;;;;10.73;10.03;;;23.30;99.90;;;;;;5052320;28;20416;-77
2021/06/29 07:36:22;;;;;;;11.60;11.00;;;23.30;99.70;;;;;;5051737;28;20408;-78
2021/06/29 07:38:48;;;;;;;13.77;12.73;;;23.30;99.70;;;;;;5052268;28;20169;-77
2021/06/29 07:41:15;;;;;;;12.80;11.90;;;23.30;99.90;;;;;;5052366;28;20481;-77
2021/06/29 07:43:41;;;;;;;12.03;11.13;;;23.30;99.90;;;;;;5051700;28;20252;-78
2021/06/29 07:46:07;;;;;;;14.10;13.07;;;23.20;99.90;;;;;;5065365;28;20464;-77
2021/06/29 07:48:33;;;;;;;15.40;14.30;;;23.30;99.90;;;;;;5071594;28;20451;-77
2021/06/29 07:50:59;;;;;;;16.20;15.10;;;23.30;99.90;;;;;;5072224;28;20411;-77
2021/06/29 07:53:24;;;;;;;16.13;15.03;;;23.30;99.90;;;;;;5071593;28;20426;-77
2021/06/29 07:55:50;;;;;;;16.20;15.00;;;23.30;99.90;;;;;;5054093;28;20184;-77
2021/06/29 07:58:17;;;;;;;17.20;16.00;;;23.40;99.90;;;;;;5072169;28;20370;-77
2021/06/29 08:00:43;;;;;;;18.20;16.53;;;23.40;99.90;;;;;;5071258;28;20408;-77
2021/06/29 08:03:09;;;;;;;15.87;14.67;;;23.40;99.90;;;;;;5072227;28;20412;-77
2021/06/29 08:05:35;;;;;;;16.27;15.07;;;23.40;99.90;;;;;;5071540;28;20985;-77
2021/06/29 08:08:00;;;;;;;17.03;15.63;;;23.50;99.90;;;;;;5072059;28;20184;-77
2021/06/29 08:10:26;;;;;;;17.97;16.53;;;23.50;99.90;;;;;;5071355;28;20181;-78
2021/06/29 08:12:53;;;;;;;18.00;16.40;;;23.60;99.90;;;;;;5071945;28;20629;-77
2021/06/29 08:15:20;;;;;;;19.37;17.97;;;23.60;99.90;;;;;;5071934;28;20407;-77
2021/06/29 08:17:46;;;;;;;19.80;18.20;;;23.60;99.90;;;;;;5072021;28;20419;-77
2021/06/29 08:20:15;;;;;;;18.37;16.87;;;23.60;99.90;;;;;;5071930;28;20504;-77
2021/06/29 08:22:42;;;;;;;17.87;16.47;;;23.70;99.90;;;;;;5071366;28;21167;-77
2021/06/29 08:25:09;;;;;;;16.70;15.40;;;23.70;99.90;;;;;;5071943;28;20399;-77
2021/06/29 08:27:34;;;;;;;13.50;12.57;;;23.70;99.90;;;;;;5071345;28;20430;-77
2021/06/29 08:30:01;;;;;;;13.67;12.77;;;23.70;99.40;;;;;;5071792;28;20447;-77
2021/06/29 08:32:27;;;;;;;13.47;12.57;;;23.60;99.00;;;;;;5070738;28;20695;-77
2021/06/29 08:34:54;;;;;;;13.47;12.57;;;23.60;99.10;;;;;;5073322;28;20399;-77
2021/06/29 08:37:21;;;;;;;12.63;11.73;;;23.70;99.70;;;;;;5075375;28;20180;-78
2021/06/29 08:39:47;;;;;;;13.33;12.43;;;23.60;99.40;;;;;;5075309;28;20914;-78
2021/06/29 08:42:17;;;;;;;11.70;10.90;;;23.70;99.90;;;;;;5074821;28;20739;-77
2021/06/29 08:44:44;;;;;;;12.33;11.43;;;23.80;99.90;;;;;;5071487;28;20841;-77
2021/06/29 08:47:10;;;;;;;12.80;11.87;;;23.80;99.80;;;;;;5055299;28;20499;-77
2021/06/29 08:49:36;;;;;;;12.77;11.77;;;23.80;99.70;;;;;;5054602;28;20456;-77
2021/06/29 08:52:07;;;;;;;12.00;11.20;;;23.80;99.70;;;;;;5055253;28;20408;-77
2021/06/29 08:54:33;;;;;;;13.07;12.07;;;23.80;99.90;;;;;;5054569;28;20389;-78
2021/06/29 08:56:59;;;;;;;14.40;13.30;;;23.80;99.90;;;;;;5054794;28;20458;-77
2021/06/29 08:59:25;;;;;;;13.10;12.30;;;23.80;99.60;;;;;;5054430;28;20400;-78
2021/06/29 09:01:51;;;;;;;13.17;12.27;;;23.80;99.70;;;;;;5055011;28;20487;-77
2021/06/29 09:04:47;;;;;;;12.80;11.90;;;23.80;99.90;;;;;;5054928;28;20420;-77
2021/06/29 09:07:30;;;;;;;12.70;11.80;;;23.90;99.90;;;;;;5054916;28;20462;-77
2021/06/29 09:10:02;;;;;;;13.10;12.30;;;23.90;99.90;;;;;;5055023;28;20483;-77
2021/06/29 09:12:51;;;;;;;11.13;10.43;;;24.00;99.40;;;;;;5054147;28;20420;-78
2021/06/29 09:15:20;;;;;;;10.50;9.70;;;24.20;99.70;;;;;;5054744;28;20430;-77
2021/06/29 09:17:46;;;;;;;10.43;9.73;;;24.40;99.90;;;;;;5054091;28;20499;-77
2021/06/29 09:20:12;;;;;;;10.73;9.90;;;24.50;98.80;;;;;;5054928;28;20495;-77
2021/06/29 09:22:37;;;;;;;57.13;24.70;;;24.60;98.70;;;;;;5053592;28;20169;-78
2021/06/29 09:25:22;;;;;;;82.70;27.83;;;24.70;98.90;;;;;;5036799;28;20170;-77
2021/06/29 09:27:49;;;;;;;14.40;12.93;;;24.80;98.10;;;;;;5053504;28;20255;-77
2021/06/29 09:30:37;;;;;;;10.20;9.40;;;24.80;97.20;;;;;;5054123;28;20412;-77
2021/06/29 09:33:05;;;;;;;9.13;8.43;;;24.90;96.80;;;;;;5054839;28;20401;-77
2021/06/29 09:35:31;;;;;;;10.40;9.70;;;24.90;96.60;;;;;;5053778;28;20406;-78
2021/06/29 09:37:57;;;;;;;12.83;11.97;;;24.90;96.70;;;;;;5054287;28;20396;-77
2021/06/29 09:40:27;;;;;;;12.60;11.70;;;24.90;96.20;;;;;;5054211;28;20170;-77
2021/06/29 09:42:53;;;;;;;12.00;11.30;;;24.90;95.80;;;;;;5054621;28;20424;-77
2021/06/29 09:45:36;;;;;;;11.67;10.87;;;25.00;96.00;;;;;;5053867;28;20463;-77
2021/06/29 09:48:07;;;;;;;11.23;10.53;;;24.90;95.90;;;;;;5053728;28;20396;-77
2021/06/29 09:50:39;;;;;;;11.20;10.50;;;24.90;96.30;;;;;;5053469;28;20447;-77
2021/06/29 09:53:21;;;;;;;10.17;9.57;;;24.80;96.00;;;;;;5054136;28;20389;-77
2021/06/29 09:55:55;;;;;;;9.27;8.70;;;24.90;95.80;;;;;;5053424;28;20432;-77
2021/06/29 09:58:21;;;;;;;10.70;10.00;;;24.90;96.50;;;;;;5053949;28;20440;-78
2021/06/29 10:00:53;;;;;;;10.27;9.67;;;24.90;96.40;;;;;;5053234;28;20807;-77
2021/06/29 10:03:24;;;;;;;9.57;9.07;;;24.90;96.80;;;;;;5053825;28;20420;-77
2021/06/29 10:05:52;;;;;;;9.90;9.30;;;24.90;97.20;;;;;;5052717;28;20461;-77
2021/06/29 10:08:22;;;;;;;9.00;8.40;;;24.90;96.20;;;;;;5053294;28;20555;-77
2021/06/29 10:10:48;;;;;;;10.60;9.73;;;24.90;95.70;;;;;;5052894;28;20436;-76
2021/06/29 10:13:17;;;;;;;9.30;8.70;;;24.90;95.40;;;;;;5053801;28;20436;-77
2021/06/29 10:15:44;;;;;;;10.63;9.87;;;25.00;95.80;;;;;;5053199;28;20408;-81
2021/06/29 10:18:10;;;;;;;9.00;8.40;;;25.00;95.40;;;;;;5053731;28;20428;-76
2021/06/29 10:20:51;;;;;;;9.20;8.60;;;25.10;95.20;;;;;;5052689;28;20876;-80
2021/06/29 10:23:17;;;;;;;9.50;8.80;;;25.10;95.90;;;;;;5053601;28;20392;-77
2021/06/29 10:25:44;;;;;;;10.60;9.80;;;25.20;95.40;;;;;;5052905;28;20838;-77
2021/06/29 10:28:16;;;;;;;8.43;7.90;;;25.40;95.20;;;;;;5053348;28;20406;-77
2021/06/29 10:30:42;;;;;;;10.77;10.10;;;25.50;95.00;;;;;;5052817;28;20407;-77
2021/06/29 10:33:08;;;;;;;9.17;8.57;;;25.60;95.00;;;;;;5053378;28;20404;-77
2021/06/29 10:35:35;;;;;;;9.30;8.80;;;25.60;94.20;;;;;;5051527;28;20173;-78
2021/06/29 10:38:01;;;;;;;9.80;9.20;;;25.50;94.60;;;;;;5053297;28;20473;-77
2021/06/29 10:40:27;;;;;;;10.13;9.40;;;25.50;95.00;;;;;;5053142;28;20400;-77
2021/06/29 10:42:58;;;;;;;9.50;8.90;;;25.30;94.90;;;;;;5034878;28;20407;-77
2021/06/29 10:45:35;;;;;;;10.57;9.73;;;25.30;95.40;;;;;;5052445;28;20467;-77
2021/06/29 10:48:18;;;;;;;13.90;12.90;;;25.10;95.70;;;;;;5034973;28;20397;-77
2021/06/29 10:50:46;;;;;;;12.00;11.13;;;25.10;96.60;;;;;;5052221;28;20435;-77
2021/06/29 10:53:34;;;;;;;11.13;10.33;;;25.20;96.80;;;;;;5052845;28;20408;-76
2021/06/29 10:56:03;;;;;;;13.00;12.00;;;25.40;96.80;;;;;;5052480;28;20424;-77
2021/06/29 10:58:40;;;;;;;10.23;9.40;;;25.70;96.90;;;;;;5052835;28;20439;-77
2021/06/29 11:01:28;;;;;;;10.40;9.70;;;26.00;96.60;;;;;;5052755;28;20392;-82
2021/06/29 11:03:57;;;;;;;10.53;9.83;;;26.30;96.10;;;;;;5052178;28;20435;-77
2021/06/29 11:06:42;;;;;;;10.43;9.63;;;26.50;93.70;;;;;;5052701;28;20404;-76
2021/06/29 11:09:09;;;;;;;11.50;10.73;;;26.60;93.60;;;;;;5052670;28;21005;-77
2021/06/29 11:11:35;;;;;;;10.53;9.83;;;26.70;92.80;;;;;;5052057;28;20404;-76
2021/06/29 11:14:01;;;;;;;12.20;11.30;;;26.70;92.60;;;;;;5034789;28;20408;-77
2021/06/29 11:16:54;;;;;;;11.57;10.73;;;26.80;92.80;;;;;;5052547;28;20185;-77
2021/06/29 11:19:21;;;;;;;13.07;11.97;;;27.00;93.30;;;;;;5052523;28;20174;-77
2021/06/29 11:21:48;;;;;;;11.30;10.50;;;27.10;91.70;;;;;;5034137;28;20396;-77
2021/06/29 11:24:36;;;;;;;12.13;11.33;;;27.10;91.90;;;;;;5052586;28;20459;-77
2021/06/29 11:27:03;;;;;;;12.77;11.70;;;27.20;92.10;;;;;;5052618;28;20439;-77
2021/06/29 11:29:43;;;;;;;12.80;11.90;;;27.20;92.30;;;;;;5052380;28;20868;-77
2021/06/29 11:32:30;;;;;;;12.33;11.33;;;27.40;93.60;;;;;;5052652;28;20489;-82
2021/06/29 11:35:15;;;;;;;14.33;13.43;;;27.60;92.40;;;;;;5051861;28;20404;-78
2021/06/29 11:38:10;;;;;;;11.27;10.57;;;27.70;92.10;;;;;;5051626;28;20414;-79
2021/06/29 11:40:36;;;;;;;11.67;10.87;;;27.90;91.60;;;;;;5033995;28;20409;-78
2021/06/29 11:43:12;;;;;;;11.30;10.50;;;28.00;90.80;;;;;;5052176;28;20771;-78
2021/06/29 11:45:39;;;;;;;11.90;11.10;;;28.10;89.20;;;;;;5051654;28;20459;-78
2021/06/29 11:48:05;;;;;;;11.23;10.53;;;28.20;88.90;;;;;;5052187;28;20451;-78
2021/06/29 11:50:42;;;;;;;11.63;10.83;;;28.20;87.50;;;;;;5052183;28;20462;-78
2021/06/29 11:53:28;;;;;;;9.90;9.30;;;28.40;87.20;;;;;;5052288;28;20424;-78
2021/06/29 11:55:53;;;;;;;10.40;9.70;;;28.50;86.90;;;;;;5050977;28;20432;-79
2021/06/29 11:58:19;;;;;;;11.10;10.40;;;28.50;85.10;;;;;;5034466;28;20469;-78
2021/06/29 12:00:45;;;;;;;10.60;9.83;;;28.60;85.10;;;;;;5051558;28;20224;-79
2021/06/29 12:03:15;;;;;;;12.27;11.47;;;28.60;85.80;;;;;;5052180;28;20180;-79
2021/06/29 12:05:42;;;;;;;13.67;12.57;;;28.60;86.70;;;;;;5051600;28;20601;-79
2021/06/29 12:08:12;;;;;;;12.87;11.97;;;28.60;88.00;;;;;;5052057;28;20430;-79
2021/06/29 12:10:50;;;;;;;12.97;12.07;;;28.60;87.40;;;;;;5054107;28;20481;-79
2021/06/29 12:13:21;;;;;;;14.40;13.30;;;28.40;87.60;;;;;;5055939;28;20419;-79
2021/06/29 12:15:52;;;;;;;12.60;11.70;;;28.30;87.30;;;;;;5055325;28;20774;-79
2021/06/29 12:18:28;;;;;;;12.20;11.40;;;28.30;88.50;;;;;;5055831;28;20392;-78
2021/06/29 12:20:57;;;;;;;13.20;12.20;;;28.10;88.50;;;;;;5055175;28;20478;-79
2021/06/29 12:23:28;;;;;;;13.47;12.57;;;28.00;86.30;;;;;;5055774;28;20440;-78
2021/06/29 12:25:56;;;;;;;11.33;10.53;;;27.90;85.10;;;;;;5055069;28;20404;-82
2021/06/29 12:28:23;;;;;;;11.80;10.90;;;27.70;88.60;;;;;;5055935;28;20483;-83
2021/06/29 12:30:51;;;;;;;11.27;10.47;;;27.60;88.00;;;;;;5054768;28;20415;-84
2021/06/29 12:33:18;;;;;;;14.37;13.27;;;27.50;89.70;;;;;;5055257;28;20922;-79
2021/06/29 12:35:49;;;;;;;14.23;13.17;;;27.50;88.50;;;;;;5054882;28;20899;-79
2021/06/29 12:38:19;;;;;;;15.83;14.60;;;27.50;89.90;;;;;;5055536;28;20403;-79
2021/06/29 12:41:06;;;;;;;16.27;14.87;;;27.70;88.50;;;;;;5054803;28;20891;-76